sensor_id;sensor_type;location;lat;lon;timestamp;P1;durP1;ratioP1;P2;durP2;ratioP2
18443;SDS011;9350;53.176;8.194;2023-06-19T00:01:30;6.70;;;6.00;;
18443;SDS011;9350;53.176;8.194;2023-06-19T00:03:57;7.85;;;6.57;;
18443;SDS011;9350;53.176;8.194;2023-06-19T00:06:23;7.22;;;5.65;;
18443;SDS011;9350;53.176;8.194;2023-06-19T00:08:50;10.82;;;7.07;;
18443;SDS011;9350;53.176;8.194;2023-06-19T00:11:17;7.47;;;6.38;;
18443;SDS011;9350;53.176;8.194;2023-06-19T00:13:44;7.03;;;6.13;;
18443;SDS011;9350;53.176;8.194;2023-06-19T00:16:10;8.63;;;6.32;;
18443;SDS011;9350;53.176;8.194;2023-06-19T00:18:38;6.20;;;5.63;;
18443;SDS011;9350;53.176;8.194;2023-06-19T00:21:05;15.20;;;6.60;;
18443;SDS011;9350;53.176;8.194;2023-06-19T00:23:32;7.82;;;6.28;;
18443;SDS011;9350;53.176;8.194;2023-06-19T00:25:59;8.98;;;6.38;;
18443;SDS011;9350;53.176;8.194;2023-06-19T00:28:27;8.88;;;5.78;;
18443;SDS011;9350;53.176;8.194;2023-06-19T00:30:53;9.68;;;6.22;;
18443;SDS011;9350;53.176;8.194;2023-06-19T00:33:20;6.10;;;5.53;;
18443;SDS011;9350;53.176;8.194;2023-06-19T00:35:49;6.00;;;5.40;;
18443;SDS011;9350;53.176;8.194;2023-06-19T00:38:16;8.23;;;6.32;;
18443;SDS011;9350;53.176;8.194;2023-06-19T00:40:43;6.60;;;6.00;;
18443;SDS011;9350;53.176;8.194;2023-06-19T00:43:10;6.38;;;5.78;;
18443;SDS011;9350;53.176;8.194;2023-06-19T00:45:36;8.75;;;6.38;;
18443;SDS011;9350;53.176;8.194;2023-06-19T00:48:03;6.90;;;6.15;;
18443;SDS011;9350;53.176;8.194;2023-06-19T00:50:30;6.53;;;5.90;;
18443;SDS011;9350;53.176;8.194;2023-06-19T00:52:58;8.43;;;6.65;;
18443;SDS011;9350;53.176;8.194;2023-06-19T00:55:28;8.57;;;6.53;;
18443;SDS011;9350;53.176;8.194;2023-06-19T00:57:55;6.93;;;6.03;;
18443;SDS011;9350;53.176;8.194;2023-06-19T01:00:22;6.50;;;5.85;;
18443;SDS011;9350;53.176;8.194;2023-06-19T01:02:49;7.30;;;6.00;;
18443;SDS011;9350;53.176;8.194;2023-06-19T01:05:15;6.75;;;6.05;;
18443;SDS011;9350;53.176;8.194;2023-06-19T01:07:45;7.57;;;5.90;;
18443;SDS011;9350;53.176;8.194;2023-06-19T01:10:18;7.53;;;5.90;;
18443;SDS011;9350;53.176;8.194;2023-06-19T01:12:49;7.07;;;6.10;;
18443;SDS011;9350;53.176;8.194;2023-06-19T01:15:18;10.48;;;5.93;;
18443;SDS011;9350;53.176;8.194;2023-06-19T01:17:48;6.80;;;6.13;;
18443;SDS011;9350;53.176;8.194;2023-06-19T01:20:15;7.05;;;5.85;;
18443;SDS011;9350;53.176;8.194;2023-06-19T01:22:44;7.13;;;6.10;;
18443;SDS011;9350;53.176;8.194;2023-06-19T01:25:11;8.65;;;6.22;;
18443;SDS011;9350;53.176;8.194;2023-06-19T01:27:38;8.05;;;6.38;;
18443;SDS011;9350;53.176;8.194;2023-06-19T01:30:07;7.82;;;5.68;;
18443;SDS011;9350;53.176;8.194;2023-06-19T01:32:37;6.93;;;5.75;;
18443;SDS011;9350;53.176;8.194;2023-06-19T01:35:10;7.22;;;5.70;;
18443;SDS011;9350;53.176;8.194;2023-06-19T01:37:39;6.63;;;5.90;;
18443;SDS011;9350;53.176;8.194;2023-06-19T01:40:09;5.88;;;5.38;;
18443;SDS011;9350;53.176;8.194;2023-06-19T01:42:37;9.13;;;6.03;;
18443;SDS011;9350;53.176;8.194;2023-06-19T01:45:06;6.82;;;5.88;;
18443;SDS011;9350;53.176;8.194;2023-06-19T01:47:34;7.50;;;5.72;;
18443;SDS011;9350;53.176;8.194;2023-06-19T01:50:01;6.38;;;5.78;;
18443;SDS011;9350;53.176;8.194;2023-06-19T01:52:28;7.00;;;5.97;;
18443;SDS011;9350;53.176;8.194;2023-06-19T01:54:54;7.10;;;5.75;;
18443;SDS011;9350;53.176;8.194;2023-06-19T01:57:22;9.65;;;6.38;;
18443;SDS011;9350;53.176;8.194;2023-06-19T01:59:49;6.38;;;5.70;;
18443;SDS011;9350;53.176;8.194;2023-06-19T02:02:16;8.48;;;5.63;;
18443;SDS011;9350;53.176;8.194;2023-06-19T02:04:42;7.55;;;5.43;;
18443;SDS011;9350;53.176;8.194;2023-06-19T02:07:09;7.60;;;5.97;;
18443;SDS011;9350;53.176;8.194;2023-06-19T02:09:37;6.75;;;5.63;;
18443;SDS011;9350;53.176;8.194;2023-06-19T02:12:04;7.18;;;5.57;;
18443;SDS011;9350;53.176;8.194;2023-06-19T02:14:33;8.80;;;5.32;;
18443;SDS011;9350;53.176;8.194;2023-06-19T02:17:00;7.60;;;5.78;;
18443;SDS011;9350;53.176;8.194;2023-06-19T02:19:27;7.03;;;5.80;;
18443;SDS011;9350;53.176;8.194;2023-06-19T02:21:53;7.82;;;6.28;;
18443;SDS011;9350;53.176;8.194;2023-06-19T02:24:20;6.15;;;5.57;;
18443;SDS011;9350;53.176;8.194;2023-06-19T02:26:47;6.30;;;5.70;;
18443;SDS011;9350;53.176;8.194;2023-06-19T02:29:14;7.72;;;5.28;;
18443;SDS011;9350;53.176;8.194;2023-06-19T02:31:42;6.75;;;5.53;;
18443;SDS011;9350;53.176;8.194;2023-06-19T02:34:08;8.15;;;5.38;;
18443;SDS011;9350;53.176;8.194;2023-06-19T02:36:35;6.07;;;5.47;;
18443;SDS011;9350;53.176;8.194;2023-06-19T02:39:03;6.03;;;5.53;;
18443;SDS011;9350;53.176;8.194;2023-06-19T02:41:30;8.23;;;5.43;;
18443;SDS011;9350;53.176;8.194;2023-06-19T02:43:57;6.22;;;5.63;;
18443;SDS011;9350;53.176;8.194;2023-06-19T02:46:24;7.18;;;6.00;;
18443;SDS011;9350;53.176;8.194;2023-06-19T02:48:52;7.05;;;5.90;;
18443;SDS011;9350;53.176;8.194;2023-06-19T02:51:19;6.28;;;5.68;;
18443;SDS011;9350;53.176;8.194;2023-06-19T02:53:45;7.30;;;5.90;;
18443;SDS011;9350;53.176;8.194;2023-06-19T02:56:12;6.43;;;5.75;;
18443;SDS011;9350;53.176;8.194;2023-06-19T02:58:39;6.35;;;5.75;;
18443;SDS011;9350;53.176;8.194;2023-06-19T03:01:06;7.03;;;5.22;;
18443;SDS011;9350;53.176;8.194;2023-06-19T03:03:33;8.50;;;5.55;;
18443;SDS011;9350;53.176;8.194;2023-06-19T03:06:05;6.35;;;5.43;;
18443;SDS011;9350;53.176;8.194;2023-06-19T03:08:32;9.50;;;5.70;;
18443;SDS011;9350;53.176;8.194;2023-06-19T03:10:59;6.05;;;5.45;;
18443;SDS011;9350;53.176;8.194;2023-06-19T03:13:29;6.38;;;5.00;;
18443;SDS011;9350;53.176;8.194;2023-06-19T03:15:55;6.57;;;5.85;;
18443;SDS011;9350;53.176;8.194;2023-06-19T03:18:22;6.07;;;5.47;;
18443;SDS011;9350;53.176;8.194;2023-06-19T03:20:49;5.95;;;5.45;;
18443;SDS011;9350;53.176;8.194;2023-06-19T03:23:17;7.00;;;5.43;;
18443;SDS011;9350;53.176;8.194;2023-06-19T03:25:44;5.82;;;5.22;;
18443;SDS011;9350;53.176;8.194;2023-06-19T03:28:10;39.95;;;6.50;;
18443;SDS011;9350;53.176;8.194;2023-06-19T03:30:37;16.58;;;5.78;;
18443;SDS011;9350;53.176;8.194;2023-06-19T03:33:04;6.22;;;5.32;;
18443;SDS011;9350;53.176;8.194;2023-06-19T03:35:30;7.80;;;5.57;;
18443;SDS011;9350;53.176;8.194;2023-06-19T03:37:57;11.25;;;5.70;;
18443;SDS011;9350;53.176;8.194;2023-06-19T03:40:25;6.75;;;5.15;;
18443;SDS011;9350;53.176;8.194;2023-06-19T03:42:54;8.43;;;5.50;;
18443;SDS011;9350;53.176;8.194;2023-06-19T03:45:20;6.90;;;5.75;;
18443;SDS011;9350;53.176;8.194;2023-06-19T03:47:47;7.38;;;5.80;;
18443;SDS011;9350;53.176;8.194;2023-06-19T03:50:14;6.60;;;5.60;;
18443;SDS011;9350;53.176;8.194;2023-06-19T03:52:41;6.32;;;5.72;;
18443;SDS011;9350;53.176;8.194;2023-06-19T03:55:07;9.25;;;5.65;;
18443;SDS011;9350;53.176;8.194;2023-06-19T03:57:36;5.70;;;5.20;;
18443;SDS011;9350;53.176;8.194;2023-06-19T04:00:03;6.28;;;5.13;;
18443;SDS011;9350;53.176;8.194;2023-06-19T04:02:32;6.28;;;5.68;;
18443;SDS011;9350;53.176;8.194;2023-06-19T04:04:59;5.88;;;5.38;;
18443;SDS011;9350;53.176;8.194;2023-06-19T04:07:26;6.07;;;5.45;;
18443;SDS011;9350;53.176;8.194;2023-06-19T04:09:53;7.35;;;6.18;;
18443;SDS011;9350;53.176;8.194;2023-06-19T04:12:20;6.38;;;5.75;;
18443;SDS011;9350;53.176;8.194;2023-06-19T04:14:48;5.82;;;5.32;;
18443;SDS011;9350;53.176;8.194;2023-06-19T04:17:14;7.70;;;5.30;;
18443;SDS011;9350;53.176;8.194;2023-06-19T04:19:41;7.20;;;5.82;;
18443;SDS011;9350;53.176;8.194;2023-06-19T04:22:08;9.73;;;5.97;;
18443;SDS011;9350;53.176;8.194;2023-06-19T04:24:35;6.60;;;5.90;;
18443;SDS011;9350;53.176;8.194;2023-06-19T04:27:02;8.32;;;5.78;;
18443;SDS011;9350;53.176;8.194;2023-06-19T04:29:29;6.18;;;5.45;;
18443;SDS011;9350;53.176;8.194;2023-06-19T04:31:57;7.57;;;5.40;;
18443;SDS011;9350;53.176;8.194;2023-06-19T04:34:24;5.68;;;5.15;;
18443;SDS011;9350;53.176;8.194;2023-06-19T04:36:51;10.55;;;6.13;;
18443;SDS011;9350;53.176;8.194;2023-06-19T04:39:18;5.75;;;5.18;;
18443;SDS011;9350;53.176;8.194;2023-06-19T04:41:46;6.80;;;5.68;;
18443;SDS011;9350;53.176;8.194;2023-06-19T04:44:12;8.68;;;6.05;;
18443;SDS011;9350;53.176;8.194;2023-06-19T04:46:39;6.50;;;5.60;;
18443;SDS011;9350;53.176;8.194;2023-06-19T04:49:07;6.82;;;5.60;;
18443;SDS011;9350;53.176;8.194;2023-06-19T04:51:35;7.90;;;5.60;;
18443;SDS011;9350;53.176;8.194;2023-06-19T04:54:01;12.35;;;6.20;;
18443;SDS011;9350;53.176;8.194;2023-06-19T04:56:28;8.55;;;5.60;;
18443;SDS011;9350;53.176;8.194;2023-06-19T04:58:55;13.15;;;6.45;;
18443;SDS011;9350;53.176;8.194;2023-06-19T05:01:24;10.02;;;6.00;;
18443;SDS011;9350;53.176;8.194;2023-06-19T05:03:53;7.97;;;5.68;;
18443;SDS011;9350;53.176;8.194;2023-06-19T05:06:22;6.45;;;5.35;;
18443;SDS011;9350;53.176;8.194;2023-06-19T05:08:49;7.05;;;5.55;;
18443;SDS011;9350;53.176;8.194;2023-06-19T05:11:16;7.63;;;6.00;;
18443;SDS011;9350;53.176;8.194;2023-06-19T05:13:42;7.07;;;6.10;;
18443;SDS011;9350;53.176;8.194;2023-06-19T05:16:09;15.85;;;6.57;;
18443;SDS011;9350;53.176;8.194;2023-06-19T05:18:36;10.27;;;6.57;;
18443;SDS011;9350;53.176;8.194;2023-06-19T05:21:03;7.68;;;6.28;;
18443;SDS011;9350;53.176;8.194;2023-06-19T05:23:31;6.60;;;5.88;;
18443;SDS011;9350;53.176;8.194;2023-06-19T05:25:58;11.05;;;5.68;;
18443;SDS011;9350;53.176;8.194;2023-06-19T05:28:24;8.38;;;6.05;;
18443;SDS011;9350;53.176;8.194;2023-06-19T05:30:51;9.70;;;6.28;;
18443;SDS011;9350;53.176;8.194;2023-06-19T05:33:18;6.57;;;5.80;;
18443;SDS011;9350;53.176;8.194;2023-06-19T05:35:44;11.23;;;6.18;;
18443;SDS011;9350;53.176;8.194;2023-06-19T05:38:16;7.35;;;6.00;;
18443;SDS011;9350;53.176;8.194;2023-06-19T05:40:44;6.88;;;5.97;;
18443;SDS011;9350;53.176;8.194;2023-06-19T05:43:11;7.70;;;5.93;;
18443;SDS011;9350;53.176;8.194;2023-06-19T05:45:38;8.55;;;5.85;;
18443;SDS011;9350;53.176;8.194;2023-06-19T05:48:05;6.10;;;5.50;;
18443;SDS011;9350;53.176;8.194;2023-06-19T05:50:31;8.10;;;6.20;;
18443;SDS011;9350;53.176;8.194;2023-06-19T05:52:58;8.07;;;5.63;;
18443;SDS011;9350;53.176;8.194;2023-06-19T05:55:25;8.00;;;6.30;;
18443;SDS011;9350;53.176;8.194;2023-06-19T05:57:53;8.80;;;6.70;;
18443;SDS011;9350;53.176;8.194;2023-06-19T06:00:21;8.27;;;6.35;;
18443;SDS011;9350;53.176;8.194;2023-06-19T06:02:48;7.70;;;6.28;;
18443;SDS011;9350;53.176;8.194;2023-06-19T06:05:16;7.43;;;5.88;;
18443;SDS011;9350;53.176;8.194;2023-06-19T06:07:44;10.02;;;5.72;;
18443;SDS011;9350;53.176;8.194;2023-06-19T06:10:10;9.77;;;7.53;;
18443;SDS011;9350;53.176;8.194;2023-06-19T06:12:37;7.70;;;6.13;;
18443;SDS011;9350;53.176;8.194;2023-06-19T06:15:06;8.80;;;6.40;;
18443;SDS011;9350;53.176;8.194;2023-06-19T06:17:33;10.07;;;5.95;;
18443;SDS011;9350;53.176;8.194;2023-06-19T06:20:00;9.85;;;6.53;;
18443;SDS011;9350;53.176;8.194;2023-06-19T06:22:29;7.10;;;6.40;;
18443;SDS011;9350;53.176;8.194;2023-06-19T06:24:56;7.22;;;5.80;;
18443;SDS011;9350;53.176;8.194;2023-06-19T06:27:22;10.88;;;6.05;;
18443;SDS011;9350;53.176;8.194;2023-06-19T06:29:49;7.95;;;6.18;;
18443;SDS011;9350;53.176;8.194;2023-06-19T06:32:17;7.75;;;6.13;;
18443;SDS011;9350;53.176;8.194;2023-06-19T06:34:44;10.20;;;6.50;;
18443;SDS011;9350;53.176;8.194;2023-06-19T06:37:10;10.63;;;6.72;;
18443;SDS011;9350;53.176;8.194;2023-06-19T06:39:37;9.30;;;7.07;;
18443;SDS011;9350;53.176;8.194;2023-06-19T06:42:04;7.63;;;6.40;;
18443;SDS011;9350;53.176;8.194;2023-06-19T06:44:31;7.25;;;6.50;;
18443;SDS011;9350;53.176;8.194;2023-06-19T06:46:58;8.32;;;6.55;;
18443;SDS011;9350;53.176;8.194;2023-06-19T06:49:26;7.70;;;6.32;;
18443;SDS011;9350;53.176;8.194;2023-06-19T06:51:53;14.02;;;7.32;;
18443;SDS011;9350;53.176;8.194;2023-06-19T06:54:20;9.00;;;6.50;;
18443;SDS011;9350;53.176;8.194;2023-06-19T06:56:47;7.95;;;6.78;;
18443;SDS011;9350;53.176;8.194;2023-06-19T06:59:13;12.35;;;7.13;;
18443;SDS011;9350;53.176;8.194;2023-06-19T07:01:41;12.18;;;6.70;;
18443;SDS011;9350;53.176;8.194;2023-06-19T07:04:08;7.72;;;6.05;;
18443;SDS011;9350;53.176;8.194;2023-06-19T07:06:36;9.20;;;6.80;;
18443;SDS011;9350;53.176;8.194;2023-06-19T07:09:03;9.02;;;6.93;;
18443;SDS011;9350;53.176;8.194;2023-06-19T07:11:29;9.52;;;6.45;;
18443;SDS011;9350;53.176;8.194;2023-06-19T07:13:56;8.32;;;6.60;;
18443;SDS011;9350;53.176;8.194;2023-06-19T07:16:23;9.85;;;6.38;;
18443;SDS011;9350;53.176;8.194;2023-06-19T07:18:49;6.57;;;5.80;;
18443;SDS011;9350;53.176;8.194;2023-06-19T07:21:16;6.38;;;5.78;;
18443;SDS011;9350;53.176;8.194;2023-06-19T07:23:44;9.95;;;5.88;;
18443;SDS011;9350;53.176;8.194;2023-06-19T07:26:13;6.15;;;5.47;;
18443;SDS011;9350;53.176;8.194;2023-06-19T07:28:40;11.35;;;5.75;;
18443;SDS011;9350;53.176;8.194;2023-06-19T07:31:07;6.30;;;5.18;;
18443;SDS011;9350;53.176;8.194;2023-06-19T07:33:34;10.23;;;6.10;;
18443;SDS011;9350;53.176;8.194;2023-06-19T07:36:01;6.65;;;5.70;;
18443;SDS011;9350;53.176;8.194;2023-06-19T07:38:28;7.20;;;5.35;;
18443;SDS011;9350;53.176;8.194;2023-06-19T07:40:56;10.68;;;5.43;;
18443;SDS011;9350;53.176;8.194;2023-06-19T07:43:23;6.43;;;5.07;;
18443;SDS011;9350;53.176;8.194;2023-06-19T07:45:50;5.45;;;4.95;;
18443;SDS011;9350;53.176;8.194;2023-06-19T07:48:17;9.02;;;5.00;;
18443;SDS011;9350;53.176;8.194;2023-06-19T07:50:43;5.80;;;4.45;;
18443;SDS011;9350;53.176;8.194;2023-06-19T07:53:11;5.68;;;4.63;;
18443;SDS011;9350;53.176;8.194;2023-06-19T07:55:37;6.15;;;4.55;;
18443;SDS011;9350;53.176;8.194;2023-06-19T07:58:05;8.15;;;5.68;;
18443;SDS011;9350;53.176;8.194;2023-06-19T08:00:32;7.47;;;5.68;;
18443;SDS011;9350;53.176;8.194;2023-06-19T08:02:59;7.60;;;5.95;;
18443;SDS011;9350;53.176;8.194;2023-06-19T08:05:25;5.10;;;4.65;;
18443;SDS011;9350;53.176;8.194;2023-06-19T08:07:52;6.30;;;4.70;;
18443;SDS011;9350;53.176;8.194;2023-06-19T08:10:19;6.60;;;4.03;;
18443;SDS011;9350;53.176;8.194;2023-06-19T08:12:45;6.65;;;4.60;;
18443;SDS011;9350;53.176;8.194;2023-06-19T08:15:14;4.55;;;4.13;;
18443;SDS011;9350;53.176;8.194;2023-06-19T08:17:40;4.85;;;4.10;;
18443;SDS011;9350;53.176;8.194;2023-06-19T08:20:08;7.78;;;4.90;;
18443;SDS011;9350;53.176;8.194;2023-06-19T08:22:35;6.18;;;4.57;;
18443;SDS011;9350;53.176;8.194;2023-06-19T08:25:03;6.20;;;4.53;;
18443;SDS011;9350;53.176;8.194;2023-06-19T08:27:30;4.57;;;4.18;;
18443;SDS011;9350;53.176;8.194;2023-06-19T08:29:57;6.47;;;4.50;;
18443;SDS011;9350;53.176;8.194;2023-06-19T08:32:25;5.32;;;4.20;;
18443;SDS011;9350;53.176;8.194;2023-06-19T08:34:52;7.15;;;3.95;;
18443;SDS011;9350;53.176;8.194;2023-06-19T08:37:19;4.80;;;4.15;;
18443;SDS011;9350;53.176;8.194;2023-06-19T08:39:46;5.18;;;4.13;;
18443;SDS011;9350;53.176;8.194;2023-06-19T08:42:13;6.03;;;4.10;;
18443;SDS011;9350;53.176;8.194;2023-06-19T08:44:39;4.63;;;4.18;;
18443;SDS011;9350;53.176;8.194;2023-06-19T08:47:06;7.20;;;4.65;;
18443;SDS011;9350;53.176;8.194;2023-06-19T08:49:36;12.38;;;4.53;;
18443;SDS011;9350;53.176;8.194;2023-06-19T08:52:03;7.05;;;4.50;;
18443;SDS011;9350;53.176;8.194;2023-06-19T08:54:30;6.88;;;4.22;;
18443;SDS011;9350;53.176;8.194;2023-06-19T08:56:59;8.13;;;4.75;;
18443;SDS011;9350;53.176;8.194;2023-06-19T08:59:26;5.28;;;4.38;;
18443;SDS011;9350;53.176;8.194;2023-06-19T09:01:53;6.40;;;4.25;;
18443;SDS011;9350;53.176;8.194;2023-06-19T09:04:21;7.57;;;4.18;;
18443;SDS011;9350;53.176;8.194;2023-06-19T09:06:53;5.93;;;4.45;;
18443;SDS011;9350;53.176;8.194;2023-06-19T09:09:21;6.75;;;4.03;;
18443;SDS011;9350;53.176;8.194;2023-06-19T09:11:59;5.43;;;4.25;;
18443;SDS011;9350;53.176;8.194;2023-06-19T09:14:33;7.50;;;3.60;;
18443;SDS011;9350;53.176;8.194;2023-06-19T09:17:01;4.15;;;3.85;;
18443;SDS011;9350;53.176;8.194;2023-06-19T09:19:28;6.97;;;4.20;;
18443;SDS011;9350;53.176;8.194;2023-06-19T09:22:00;6.05;;;3.45;;
18443;SDS011;9350;53.176;8.194;2023-06-19T09:24:32;5.28;;;3.10;;
18443;SDS011;9350;53.176;8.194;2023-06-19T09:27:05;6.85;;;3.03;;
18443;SDS011;9350;53.176;8.194;2023-06-19T09:29:35;3.60;;;3.30;;
18443;SDS011;9350;53.176;8.194;2023-06-19T09:32:13;7.15;;;3.85;;
18443;SDS011;9350;53.176;8.194;2023-06-19T09:34:43;17.23;;;3.85;;
18443;SDS011;9350;53.176;8.194;2023-06-19T09:37:12;12.98;;;3.30;;
18443;SDS011;9350;53.176;8.194;2023-06-19T09:39:39;8.48;;;3.10;;
18443;SDS011;9350;53.176;8.194;2023-06-19T09:42:06;5.65;;;3.10;;
18443;SDS011;9350;53.176;8.194;2023-06-19T09:44:37;5.50;;;3.20;;
18443;SDS011;9350;53.176;8.194;2023-06-19T09:47:08;4.60;;;3.30;;
18443;SDS011;9350;53.176;8.194;2023-06-19T09:49:42;5.85;;;2.80;;
18443;SDS011;9350;53.176;8.194;2023-06-19T09:52:15;4.88;;;3.30;;
18443;SDS011;9350;53.176;8.194;2023-06-19T09:54:44;4.82;;;2.88;;
18443;SDS011;9350;53.176;8.194;2023-06-19T09:57:12;5.38;;;2.92;;
18443;SDS011;9350;53.176;8.194;2023-06-19T09:59:38;3.40;;;3.10;;
18443;SDS011;9350;53.176;8.194;2023-06-19T10:02:06;3.50;;;3.20;;
18443;SDS011;9350;53.176;8.194;2023-06-19T10:04:41;3.50;;;3.20;;
18443;SDS011;9350;53.176;8.194;2023-06-19T10:07:16;3.53;;;3.22;;
18443;SDS011;9350;53.176;8.194;2023-06-19T10:09:54;3.90;;;3.50;;
18443;SDS011;9350;53.176;8.194;2023-06-19T10:12:22;4.20;;;3.38;;
18443;SDS011;9350;53.176;8.194;2023-06-19T10:14:48;3.35;;;2.88;;
18443;SDS011;9350;53.176;8.194;2023-06-19T10:17:16;7.95;;;3.50;;
18443;SDS011;9350;53.176;8.194;2023-06-19T10:19:48;3.55;;;3.35;;
18443;SDS011;9350;53.176;8.194;2023-06-19T10:22:20;4.35;;;3.25;;
18443;SDS011;9350;53.176;8.194;2023-06-19T10:24:49;3.95;;;3.60;;
18443;SDS011;9350;53.176;8.194;2023-06-19T10:27:20;5.32;;;3.08;;
18443;SDS011;9350;53.176;8.194;2023-06-19T10:29:51;6.07;;;3.53;;
18443;SDS011;9350;53.176;8.194;2023-06-19T10:32:18;3.83;;;3.42;;
18443;SDS011;9350;53.176;8.194;2023-06-19T10:34:45;4.18;;;3.42;;
18443;SDS011;9350;53.176;8.194;2023-06-19T10:37:13;4.90;;;3.85;;
18443;SDS011;9350;53.176;8.194;2023-06-19T10:39:42;3.63;;;2.95;;
18443;SDS011;9350;53.176;8.194;2023-06-19T10:42:09;4.63;;;3.58;;
18443;SDS011;9350;53.176;8.194;2023-06-19T10:44:36;5.60;;;2.95;;
18443;SDS011;9350;53.176;8.194;2023-06-19T10:47:03;3.95;;;3.20;;
18443;SDS011;9350;53.176;8.194;2023-06-19T10:49:32;4.18;;;3.38;;
18443;SDS011;9350;53.176;8.194;2023-06-19T10:51:59;3.28;;;3.08;;
18443;SDS011;9350;53.176;8.194;2023-06-19T10:54:26;3.45;;;3.15;;
18443;SDS011;9350;53.176;8.194;2023-06-19T10:56:55;5.80;;;3.67;;
18443;SDS011;9350;53.176;8.194;2023-06-19T10:59:22;3.80;;;3.50;;
18443;SDS011;9350;53.176;8.194;2023-06-19T11:01:49;6.93;;;3.45;;
18443;SDS011;9350;53.176;8.194;2023-06-19T11:04:16;4.43;;;3.20;;
18443;SDS011;9350;53.176;8.194;2023-06-19T11:06:44;3.60;;;3.30;;
18443;SDS011;9350;53.176;8.194;2023-06-19T11:09:12;4.28;;;3.50;;
18443;SDS011;9350;53.176;8.194;2023-06-19T11:11:40;3.00;;;2.80;;
18443;SDS011;9350;53.176;8.194;2023-06-19T11:14:09;3.45;;;3.10;;
18443;SDS011;9350;53.176;8.194;2023-06-19T11:16:38;3.63;;;3.40;;
18443;SDS011;9350;53.176;8.194;2023-06-19T11:19:07;7.88;;;3.53;;
18443;SDS011;9350;53.176;8.194;2023-06-19T11:21:35;4.97;;;3.40;;
18443;SDS011;9350;53.176;8.194;2023-06-19T11:24:04;6.82;;;3.80;;
18443;SDS011;9350;53.176;8.194;2023-06-19T11:26:34;3.78;;;3.25;;
18443;SDS011;9350;53.176;8.194;2023-06-19T11:29:14;4.38;;;3.40;;
18443;SDS011;9350;53.176;8.194;2023-06-19T11:31:41;8.00;;;3.83;;
18443;SDS011;9350;53.176;8.194;2023-06-19T11:34:08;4.65;;;3.88;;
18443;SDS011;9350;53.176;8.194;2023-06-19T11:36:36;4.10;;;3.63;;
18443;SDS011;9350;53.176;8.194;2023-06-19T11:39:03;7.05;;;4.30;;
18443;SDS011;9350;53.176;8.194;2023-06-19T11:41:34;4.80;;;4.10;;
18443;SDS011;9350;53.176;8.194;2023-06-19T11:44:02;5.95;;;4.00;;
18443;SDS011;9350;53.176;8.194;2023-06-19T11:46:32;4.22;;;3.88;;
18443;SDS011;9350;53.176;8.194;2023-06-19T11:49:09;7.88;;;4.10;;
18443;SDS011;9350;53.176;8.194;2023-06-19T11:51:37;7.75;;;4.47;;
18443;SDS011;9350;53.176;8.194;2023-06-19T11:54:05;23.20;;;4.75;;
18443;SDS011;9350;53.176;8.194;2023-06-19T11:56:33;5.72;;;3.50;;
18443;SDS011;9350;53.176;8.194;2023-06-19T11:59:00;4.07;;;3.67;;
18443;SDS011;9350;53.176;8.194;2023-06-19T12:01:28;4.68;;;3.72;;
18443;SDS011;9350;53.176;8.194;2023-06-19T12:03:56;6.35;;;4.10;;
18443;SDS011;9350;53.176;8.194;2023-06-19T12:06:23;4.05;;;3.75;;
18443;SDS011;9350;53.176;8.194;2023-06-19T12:08:49;4.70;;;4.30;;
18443;SDS011;9350;53.176;8.194;2023-06-19T12:11:16;10.40;;;5.22;;
18443;SDS011;9350;53.176;8.194;2023-06-19T12:13:43;8.05;;;5.28;;
18443;SDS011;9350;53.176;8.194;2023-06-19T12:16:10;5.60;;;4.88;;
18443;SDS011;9350;53.176;8.194;2023-06-19T12:18:37;6.95;;;4.57;;
18443;SDS011;9350;53.176;8.194;2023-06-19T12:21:05;7.75;;;5.53;;
18443;SDS011;9350;53.176;8.194;2023-06-19T12:23:32;6.78;;;5.13;;
18443;SDS011;9350;53.176;8.194;2023-06-19T12:25:59;6.45;;;5.80;;
18443;SDS011;9350;53.176;8.194;2023-06-19T12:28:26;7.13;;;6.40;;
18443;SDS011;9350;53.176;8.194;2023-06-19T12:30:53;6.13;;;4.50;;
18443;SDS011;9350;53.176;8.194;2023-06-19T12:33:21;9.13;;;5.70;;
18443;SDS011;9350;53.176;8.194;2023-06-19T12:35:48;6.82;;;4.80;;
18443;SDS011;9350;53.176;8.194;2023-06-19T12:38:16;5.95;;;5.35;;
18443;SDS011;9350;53.176;8.194;2023-06-19T12:40:43;6.60;;;5.45;;
18443;SDS011;9350;53.176;8.194;2023-06-19T12:43:10;6.18;;;5.57;;
18443;SDS011;9350;53.176;8.194;2023-06-19T12:45:37;8.30;;;6.22;;
18443;SDS011;9350;53.176;8.194;2023-06-19T12:48:04;8.18;;;5.82;;
18443;SDS011;9350;53.176;8.194;2023-06-19T12:50:31;7.10;;;5.55;;
18443;SDS011;9350;53.176;8.194;2023-06-19T12:52:58;7.90;;;6.55;;
18443;SDS011;9350;53.176;8.194;2023-06-19T12:55:26;7.55;;;5.70;;
18443;SDS011;9350;53.176;8.194;2023-06-19T12:57:53;8.52;;;5.68;;
18443;SDS011;9350;53.176;8.194;2023-06-19T13:00:19;7.95;;;4.65;;
18443;SDS011;9350;53.176;8.194;2023-06-19T13:02:46;5.47;;;4.88;;
18443;SDS011;9350;53.176;8.194;2023-06-19T13:05:13;7.57;;;5.35;;
18443;SDS011;9350;53.176;8.194;2023-06-19T13:07:40;9.10;;;5.25;;
18443;SDS011;9350;53.176;8.194;2023-06-19T13:10:06;8.00;;;5.53;;
18443;SDS011;9350;53.176;8.194;2023-06-19T13:12:35;8.98;;;5.68;;
18443;SDS011;9350;53.176;8.194;2023-06-19T13:15:02;6.63;;;5.43;;
18443;SDS011;9350;53.176;8.194;2023-06-19T13:17:30;8.95;;;5.47;;
18443;SDS011;9350;53.176;8.194;2023-06-19T13:19:56;8.30;;;5.70;;
18443;SDS011;9350;53.176;8.194;2023-06-19T13:22:24;5.95;;;5.05;;
18443;SDS011;9350;53.176;8.194;2023-06-19T13:24:51;9.70;;;6.18;;
18443;SDS011;9350;53.176;8.194;2023-06-19T13:27:18;6.28;;;5.68;;
18443;SDS011;9350;53.176;8.194;2023-06-19T13:29:46;15.60;;;6.95;;
18443;SDS011;9350;53.176;8.194;2023-06-19T13:32:12;7.35;;;5.85;;
18443;SDS011;9350;53.176;8.194;2023-06-19T13:34:39;11.77;;;5.90;;
18443;SDS011;9350;53.176;8.194;2023-06-19T13:37:06;10.57;;;6.53;;
18443;SDS011;9350;53.176;8.194;2023-06-19T13:39:32;15.15;;;5.88;;
18443;SDS011;9350;53.176;8.194;2023-06-19T13:41:59;8.95;;;5.90;;
18443;SDS011;9350;53.176;8.194;2023-06-19T13:44:26;10.90;;;5.28;;
18443;SDS011;9350;53.176;8.194;2023-06-19T13:46:55;6.85;;;5.38;;
18443;SDS011;9350;53.176;8.194;2023-06-19T13:49:21;9.65;;;5.07;;
18443;SDS011;9350;53.176;8.194;2023-06-19T13:51:48;7.55;;;5.20;;
18443;SDS011;9350;53.176;8.194;2023-06-19T13:54:15;8.98;;;5.13;;
18443;SDS011;9350;53.176;8.194;2023-06-19T13:56:43;7.80;;;4.47;;
18443;SDS011;9350;53.176;8.194;2023-06-19T13:59:09;6.88;;;4.63;;
18443;SDS011;9350;53.176;8.194;2023-06-19T14:01:36;10.38;;;5.07;;
18443;SDS011;9350;53.176;8.194;2023-06-19T14:04:04;5.90;;;4.55;;
18443;SDS011;9350;53.176;8.194;2023-06-19T14:06:31;5.40;;;4.35;;
18443;SDS011;9350;53.176;8.194;2023-06-19T14:08:58;6.07;;;4.85;;
18443;SDS011;9350;53.176;8.194;2023-06-19T14:11:24;5.75;;;4.50;;
18443;SDS011;9350;53.176;8.194;2023-06-19T14:13:51;7.35;;;4.65;;
18443;SDS011;9350;53.176;8.194;2023-06-19T14:16:18;8.40;;;4.90;;
18443;SDS011;9350;53.176;8.194;2023-06-19T14:18:44;6.78;;;5.07;;
18443;SDS011;9350;53.176;8.194;2023-06-19T14:21:12;9.82;;;4.57;;
18443;SDS011;9350;53.176;8.194;2023-06-19T14:23:39;7.88;;;4.03;;
18443;SDS011;9350;53.176;8.194;2023-06-19T14:26:08;5.30;;;4.00;;
18443;SDS011;9350;53.176;8.194;2023-06-19T14:28:35;8.82;;;4.20;;
18443;SDS011;9350;53.176;8.194;2023-06-19T14:31:03;8.05;;;4.43;;
18443;SDS011;9350;53.176;8.194;2023-06-19T14:33:29;8.35;;;4.88;;
18443;SDS011;9350;53.176;8.194;2023-06-19T14:35:58;8.23;;;4.05;;
18443;SDS011;9350;53.176;8.194;2023-06-19T14:38:26;10.93;;;4.63;;
18443;SDS011;9350;53.176;8.194;2023-06-19T14:40:56;14.82;;;5.10;;
18443;SDS011;9350;53.176;8.194;2023-06-19T14:43:23;12.98;;;4.90;;
18443;SDS011;9350;53.176;8.194;2023-06-19T14:45:49;8.07;;;4.60;;
18443;SDS011;9350;53.176;8.194;2023-06-19T14:48:16;6.88;;;4.55;;
18443;SDS011;9350;53.176;8.194;2023-06-19T14:50:43;8.55;;;4.50;;
18443;SDS011;9350;53.176;8.194;2023-06-19T14:53:10;9.93;;;4.40;;
18443;SDS011;9350;53.176;8.194;2023-06-19T14:55:38;16.20;;;5.07;;
18443;SDS011;9350;53.176;8.194;2023-06-19T14:58:10;8.73;;;4.75;;
18443;SDS011;9350;53.176;8.194;2023-06-19T15:00:37;9.45;;;4.82;;
18443;SDS011;9350;53.176;8.194;2023-06-19T15:03:04;7.70;;;5.13;;